sensor_id;sensor_type;location;lat;lon;timestamp;P1;durP1;ratioP1;P2;durP2;ratioP2
39214;SDS011;24932;51.746;14.334;2022-10-17T00:00:40;13.38;;;10.7;;
39214;SDS011;24932;51.746;14.334;2022-10-17T00:04:40;14.2;;;10.93;;
39214;SDS011;24932;51.746;14.334;2022-10-17T00:08:41;14.4;;;10.65;;
39214;SDS011;24932;51.746;14.334;2022-10-17T00:12:40;16.7;;;10.25;;
39214;SDS011;24932;51.746;14.334;2022-10-17T00:16:40;22.02;;;11.15;;
39214;SDS011;24932;51.746;14.334;2022-10-17T00:20:40;11.43;;;9.55;;
39214;SDS011;24932;51.746;14.334;2022-10-17T00:24:41;16.85;;;10.85;;
39214;SDS011;24932;51.746;14.334;2022-10-17T00:28:40;15.05;;;10.5;;
39214;SDS011;24932;51.746;14.334;2022-10-17T00:32:40;16.45;;;9.9;;
39214;SDS011;24932;51.746;14.334;2022-10-17T00:36:40;16.42;;;11.73;;
39214;SDS011;24932;51.746;14.334;2022-10-17T00:40:40;16.73;;;11.35;;
39214;SDS011;24932;51.746;14.334;2022-10-17T00:44:59;15.73;;;9.88;;
39214;SDS011;24932;51.746;14.334;2022-10-17T00:48:40;11.93;;;9.93;;
39214;SDS011;24932;51.746;14.334;2022-10-17T00:52:41;16.65;;;9.65;;
39214;SDS011;24932;51.746;14.334;2022-10-17T00:56:40;14.45;;;10.55;;
39214;SDS011;24932;51.746;14.334;2022-10-17T01:00:41;13.23;;;10.13;;
39214;SDS011;24932;51.746;14.334;2022-10-17T01:04:41;15.38;;;9.52;;
39214;SDS011;24932;51.746;14.334;2022-10-17T01:08:40;16.08;;;10.07;;
39214;SDS011;24932;51.746;14.334;2022-10-17T01:12:47;12.18;;;9.55;;
39214;SDS011;24932;51.746;14.334;2022-10-17T01:16:42;15.95;;;9.98;;
39214;SDS011;24932;51.746;14.334;2022-10-17T01:20:47;14.87;;;10.18;;
39214;SDS011;24932;51.746;14.334;2022-10-17T01:24:53;15.02;;;10.07;;
39214;SDS011;24932;51.746;14.334;2022-10-17T01:28:50;13.52;;;9.3;;
39214;SDS011;24932;51.746;14.334;2022-10-17T01:32:39;16.08;;;10.13;;
39214;SDS011;24932;51.746;14.334;2022-10-17T01:36:42;14.4;;;10.85;;
39214;SDS011;24932;51.746;14.334;2022-10-17T01:40:41;20.08;;;11.57;;
39214;SDS011;24932;51.746;14.334;2022-10-17T01:44:41;19.83;;;11.43;;
39214;SDS011;24932;51.746;14.334;2022-10-17T01:48:41;18.67;;;11.15;;
39214;SDS011;24932;51.746;14.334;2022-10-17T01:52:41;19.35;;;11.75;;
39214;SDS011;24932;51.746;14.334;2022-10-17T01:56:40;16.05;;;10.8;;
39214;SDS011;24932;51.746;14.334;2022-10-17T02:00:41;18.0;;;12.07;;
39214;SDS011;24932;51.746;14.334;2022-10-17T02:04:41;17.2;;;11.65;;
39214;SDS011;24932;51.746;14.334;2022-10-17T02:08:41;23.45;;;12.7;;
39214;SDS011;24932;51.746;14.334;2022-10-17T02:12:44;19.95;;;11.38;;
39214;SDS011;24932;51.746;14.334;2022-10-17T02:16:41;20.45;;;12.0;;
39214;SDS011;24932;51.746;14.334;2022-10-17T02:20:42;20.9;;;12.8;;
39214;SDS011;24932;51.746;14.334;2022-10-17T02:24:43;25.15;;;13.23;;
39214;SDS011;24932;51.746;14.334;2022-10-17T02:28:41;21.4;;;13.1;;
39214;SDS011;24932;51.746;14.334;2022-10-17T02:32:41;27.8;;;13.9;;
39214;SDS011;24932;51.746;14.334;2022-10-17T02:36:43;25.83;;;13.43;;
39214;SDS011;24932;51.746;14.334;2022-10-17T02:40:40;26.02;;;12.65;;
39214;SDS011;24932;51.746;14.334;2022-10-17T02:44:41;26.65;;;14.3;;
39214;SDS011;24932;51.746;14.334;2022-10-17T02:48:40;34.05;;;15.6;;
39214;SDS011;24932;51.746;14.334;2022-10-17T02:52:43;33.58;;;16.67;;
39214;SDS011;24932;51.746;14.334;2022-10-17T02:56:41;37.75;;;17.35;;
39214;SDS011;24932;51.746;14.334;2022-10-17T03:00:40;36.95;;;18.1;;
39214;SDS011;24932;51.746;14.334;2022-10-17T03:04:41;37.22;;;18.33;;
39214;SDS011;24932;51.746;14.334;2022-10-17T03:08:40;41.37;;;17.8;;
39214;SDS011;24932;51.746;14.334;2022-10-17T03:12:40;45.12;;;19.12;;
39214;SDS011;24932;51.746;14.334;2022-10-17T03:16:40;46.83;;;20.02;;
39214;SDS011;24932;51.746;14.334;2022-10-17T03:20:40;47.05;;;20.77;;
39214;SDS011;24932;51.746;14.334;2022-10-17T03:24:40;46.15;;;19.08;;
39214;SDS011;24932;51.746;14.334;2022-10-17T03:28:41;45.0;;;19.37;;
39214;SDS011;24932;51.746;14.334;2022-10-17T03:32:40;41.25;;;20.55;;
39214;SDS011;24932;51.746;14.334;2022-10-17T03:36:40;50.65;;;22.25;;
39214;SDS011;24932;51.746;14.334;2022-10-17T03:40:40;70.15;;;25.88;;
39214;SDS011;24932;51.746;14.334;2022-10-17T03:44:40;64.43;;;27.1;;
39214;SDS011;24932;51.746;14.334;2022-10-17T03:48:40;72.32;;;30.8;;
39214;SDS011;24932;51.746;14.334;2022-10-17T03:52:40;72.6;;;31.27;;
39214;SDS011;24932;51.746;14.334;2022-10-17T03:56:40;72.93;;;32.6;;
39214;SDS011;24932;51.746;14.334;2022-10-17T04:00:41;92.35;;;34.92;;
39214;SDS011;24932;51.746;14.334;2022-10-17T04:04:40;92.72;;;35.8;;
39214;SDS011;24932;51.746;14.334;2022-10-17T04:08:40;91.15;;;35.53;;
39214;SDS011;24932;51.746;14.334;2022-10-17T04:12:40;87.3;;;35.1;;
39214;SDS011;24932;51.746;14.334;2022-10-17T04:16:40;82.3;;;34.53;;
39214;SDS011;24932;51.746;14.334;2022-10-17T04:20:41;96.07;;;37.85;;
39214;SDS011;24932;51.746;14.334;2022-10-17T04:24:40;105.43;;;39.15;;
39214;SDS011;24932;51.746;14.334;2022-10-17T04:28:41;109.97;;;39.78;;
39214;SDS011;24932;51.746;14.334;2022-10-17T04:32:40;111.55;;;41.67;;
39214;SDS011;24932;51.746;14.334;2022-10-17T04:36:40;124.3;;;44.85;;
39214;SDS011;24932;51.746;14.334;2022-10-17T04:40:40;97.2;;;40.47;;
39214;SDS011;24932;51.746;14.334;2022-10-17T04:44:40;118.47;;;44.08;;
39214;SDS011;24932;51.746;14.334;2022-10-17T04:48:40;112.1;;;45.42;;
39214;SDS011;24932;51.746;14.334;2022-10-17T04:52:40;118.13;;;43.42;;
39214;SDS011;24932;51.746;14.334;2022-10-17T04:56:40;142.32;;;46.65;;
39214;SDS011;24932;51.746;14.334;2022-10-17T05:00:41;125.53;;;45.38;;
39214;SDS011;24932;51.746;14.334;2022-10-17T05:04:40;118.2;;;46.45;;
39214;SDS011;24932;51.746;14.334;2022-10-17T05:08:41;123.25;;;46.95;;
39214;SDS011;24932;51.746;14.334;2022-10-17T05:12:40;121.68;;;46.15;;
39214;SDS011;24932;51.746;14.334;2022-10-17T05:16:41;137.18;;;52.67;;
39214;SDS011;24932;51.746;14.334;2022-10-17T05:20:40;116.68;;;47.42;;
39214;SDS011;24932;51.746;14.334;2022-10-17T05:24:41;137.1;;;49.47;;
39214;SDS011;24932;51.746;14.334;2022-10-17T05:28:41;114.07;;;49.95;;
39214;SDS011;24932;51.746;14.334;2022-10-17T05:32:40;120.9;;;48.8;;
39214;SDS011;24932;51.746;14.334;2022-10-17T05:36:40;117.85;;;48.92;;
39214;SDS011;24932;51.746;14.334;2022-10-17T05:40:40;116.35;;;48.7;;
39214;SDS011;24932;51.746;14.334;2022-10-17T05:44:40;106.55;;;44.8;;
39214;SDS011;24932;51.746;14.334;2022-10-17T05:48:40;113.85;;;46.92;;
39214;SDS011;24932;51.746;14.334;2022-10-17T05:52:45;150.05;;;52.4;;
39214;SDS011;24932;51.746;14.334;2022-10-17T05:56:40;117.5;;;45.55;;
39214;SDS011;24932;51.746;14.334;2022-10-17T06:00:40;122.72;;;45.85;;
39214;SDS011;24932;51.746;14.334;2022-10-17T06:04:41;115.47;;;45.17;;
39214;SDS011;24932;51.746;14.334;2022-10-17T06:08:40;95.68;;;42.7;;
39214;SDS011;24932;51.746;14.334;2022-10-17T06:12:40;88.3;;;41.5;;
39214;SDS011;24932;51.746;14.334;2022-10-17T06:16:40;81.22;;;39.63;;
39214;SDS011;24932;51.746;14.334;2022-10-17T06:20:46;72.22;;;37.35;;
39214;SDS011;24932;51.746;14.334;2022-10-17T06:24:40;57.4;;;32.75;;
39214;SDS011;24932;51.746;14.334;2022-10-17T06:28:40;48.08;;;30.12;;
39214;SDS011;24932;51.746;14.334;2022-10-17T06:32:40;41.85;;;28.02;;
39214;SDS011;24932;51.746;14.334;2022-10-17T06:36:40;40.3;;;28.15;;
39214;SDS011;24932;51.746;14.334;2022-10-17T06:40:40;41.47;;;28.77;;
39214;SDS011;24932;51.746;14.334;2022-10-17T06:44:40;38.4;;;26.77;;
39214;SDS011;24932;51.746;14.334;2022-10-17T06:48:40;37.8;;;25.65;;
39214;SDS011;24932;51.746;14.334;2022-10-17T06:52:40;35.5;;;26.45;;
39214;SDS011;24932;51.746;14.334;2022-10-17T06:56:40;34.88;;;25.92;;
39214;SDS011;24932;51.746;14.334;2022-10-17T07:00:41;37.13;;;25.05;;
39214;SDS011;24932;51.746;14.334;2022-10-17T07:04:40;33.63;;;24.52;;
39214;SDS011;24932;51.746;14.334;2022-10-17T07:08:41;33.3;;;24.7;;
39214;SDS011;24932;51.746;14.334;2022-10-17T07:12:41;32.6;;;23.45;;
39214;SDS011;24932;51.746;14.334;2022-10-17T07:16:40;30.37;;;22.05;;
39214;SDS011;24932;51.746;14.334;2022-10-17T07:20:41;24.95;;;19.95;;
39214;SDS011;24932;51.746;14.334;2022-10-17T07:24:40;31.08;;;20.9;;
39214;SDS011;24932;51.746;14.334;2022-10-17T07:28:41;27.17;;;19.4;;
39214;SDS011;24932;51.746;14.334;2022-10-17T07:32:40;28.73;;;19.6;;
39214;SDS011;24932;51.746;14.334;2022-10-17T07:36:40;29.95;;;20.48;;
39214;SDS011;24932;51.746;14.334;2022-10-17T07:40:40;25.27;;;19.12;;
39214;SDS011;24932;51.746;14.334;2022-10-17T07:44:40;26.17;;;18.55;;
39214;SDS011;24932;51.746;14.334;2022-10-17T07:48:40;27.08;;;18.23;;
39214;SDS011;24932;51.746;14.334;2022-10-17T07:52:40;25.88;;;18.85;;
39214;SDS011;24932;51.746;14.334;2022-10-17T07:56:40;20.3;;;16.85;;
39214;SDS011;24932;51.746;14.334;2022-10-17T08:00:41;23.02;;;17.27;;
39214;SDS011;24932;51.746;14.334;2022-10-17T08:04:40;23.45;;;17.15;;
39214;SDS011;24932;51.746;14.334;2022-10-17T08:08:41;25.58;;;16.02;;
39214;SDS011;24932;51.746;14.334;2022-10-17T08:12:40;24.77;;;14.87;;
39214;SDS011;24932;51.746;14.334;2022-10-17T08:16:41;20.08;;;14.82;;
39214;SDS011;24932;51.746;14.334;2022-10-17T08:20:40;19.08;;;14.75;;
39214;SDS011;24932;51.746;14.334;2022-10-17T08:24:40;16.98;;;14.07;;
39214;SDS011;24932;51.746;14.334;2022-10-17T08:28:40;19.73;;;14.6;;
39214;SDS011;24932;51.746;14.334;2022-10-17T08:32:40;19.92;;;13.65;;
39214;SDS011;24932;51.746;14.334;2022-10-17T08:36:40;17.27;;;13.27;;
39214;SDS011;24932;51.746;14.334;2022-10-17T08:40:41;17.62;;;12.75;;
39214;SDS011;24932;51.746;14.334;2022-10-17T08:44:43;19.42;;;13.77;;
39214;SDS011;24932;51.746;14.334;2022-10-17T08:48:46;18.95;;;12.98;;
39214;SDS011;24932;51.746;14.334;2022-10-17T08:52:41;20.23;;;12.82;;
39214;SDS011;24932;51.746;14.334;2022-10-17T08:56:50;16.5;;;13.35;;
39214;SDS011;24932;51.746;14.334;2022-10-17T09:00:41;15.95;;;12.6;;
39214;SDS011;24932;51.746;14.334;2022-10-17T09:04:44;15.5;;;13.1;;
39214;SDS011;24932;51.746;14.334;2022-10-17T09:08:42;19.5;;;12.8;;
39214;SDS011;24932;51.746;14.334;2022-10-17T09:12:42;18.25;;;12.93;;
39214;SDS011;24932;51.746;14.334;2022-10-17T09:16:46;20.0;;;12.85;;
39214;SDS011;24932;51.746;14.334;2022-10-17T09:20:41;16.5;;;11.05;;
39214;SDS011;24932;51.746;14.334;2022-10-17T09:24:41;14.52;;;12.25;;
39214;SDS011;24932;51.746;14.334;2022-10-17T09:28:41;23.87;;;13.35;;
39214;SDS011;24932;51.746;14.334;2022-10-17T09:32:40;15.98;;;11.93;;
39214;SDS011;24932;51.746;14.334;2022-10-17T09:36:40;16.6;;;11.6;;
39214;SDS011;24932;51.746;14.334;2022-10-17T09:40:41;13.85;;;11.82;;
39214;SDS011;24932;51.746;14.334;2022-10-17T09:44:41;15.73;;;11.4;;
39214;SDS011;24932;51.746;14.334;2022-10-17T09:48:41;19.0;;;12.2;;
39214;SDS011;24932;51.746;14.334;2022-10-17T09:52:41;17.67;;;12.23;;
39214;SDS011;24932;51.746;14.334;2022-10-17T09:56:55;18.7;;;11.63;;
39214;SDS011;24932;51.746;14.334;2022-10-17T10:00:41;15.4;;;12.1;;
39214;SDS011;24932;51.746;14.334;2022-10-17T10:05:05;17.85;;;11.68;;
39214;SDS011;24932;51.746;14.334;2022-10-17T10:08:49;13.7;;;11.0;;
39214;SDS011;24932;51.746;14.334;2022-10-17T10:12:40;15.02;;;11.82;;
39214;SDS011;24932;51.746;14.334;2022-10-17T10:16:41;20.08;;;12.57;;
39214;SDS011;24932;51.746;14.334;2022-10-17T10:20:41;15.57;;;11.7;;
39214;SDS011;24932;51.746;14.334;2022-10-17T10:24:41;12.2;;;10.6;;
39214;SDS011;24932;51.746;14.334;2022-10-17T10:28:47;12.75;;;10.43;;
39214;SDS011;24932;51.746;14.334;2022-10-17T10:32:40;16.05;;;11.75;;
39214;SDS011;24932;51.746;14.334;2022-10-17T10:36:42;13.75;;;11.43;;
39214;SDS011;24932;51.746;14.334;2022-10-17T10:40:43;12.4;;;11.1;;
39214;SDS011;24932;51.746;14.334;2022-10-17T10:44:41;13.1;;;11.18;;
39214;SDS011;24932;51.746;14.334;2022-10-17T10:48:48;17.1;;;11.0;;
39214;SDS011;24932;51.746;14.334;2022-10-17T10:52:42;15.07;;;11.85;;
39214;SDS011;24932;51.746;14.334;2022-10-17T10:56:41;16.83;;;10.48;;
39214;SDS011;24932;51.746;14.334;2022-10-17T11:00:40;12.68;;;10.9;;
39214;SDS011;24932;51.746;14.334;2022-10-17T11:04:41;13.88;;;11.02;;
39214;SDS011;24932;51.746;14.334;2022-10-17T11:08:42;12.48;;;10.0;;
39214;SDS011;24932;51.746;14.334;2022-10-17T11:12:42;13.93;;;9.02;;
39214;SDS011;24932;51.746;14.334;2022-10-17T11:16:41;17.9;;;9.77;;
39214;SDS011;24932;51.746;14.334;2022-10-17T11:20:42;14.38;;;10.63;;
39214;SDS011;24932;51.746;14.334;2022-10-17T11:24:43;14.27;;;9.25;;
39214;SDS011;24932;51.746;14.334;2022-10-17T11:28:41;14.38;;;7.95;;
39214;SDS011;24932;51.746;14.334;2022-10-17T11:32:41;10.63;;;7.8;;
39214;SDS011;24932;51.746;14.334;2022-10-17T11:36:41;11.82;;;8.35;;
39214;SDS011;24932;51.746;14.334;2022-10-17T11:40:41;14.65;;;8.55;;
39214;SDS011;24932;51.746;14.334;2022-10-17T11:44:40;10.38;;;8.9;;
39214;SDS011;24932;51.746;14.334;2022-10-17T11:48:41;11.98;;;7.68;;
39214;SDS011;24932;51.746;14.334;2022-10-17T11:52:57;10.38;;;8.52;;
39214;SDS011;24932;51.746;14.334;2022-10-17T11:56:44;8.13;;;7.32;;
39214;SDS011;24932;51.746;14.334;2022-10-17T12:00:48;12.0;;;8.02;;
39214;SDS011;24932;51.746;14.334;2022-10-17T12:04:51;10.63;;;7.85;;
39214;SDS011;24932;51.746;14.334;2022-10-17T12:08:42;10.6;;;7.35;;
39214;SDS011;24932;51.746;14.334;2022-10-17T12:12:40;12.98;;;7.4;;
39214;SDS011;24932;51.746;14.334;2022-10-17T12:16:41;8.85;;;6.82;;
39214;SDS011;24932;51.746;14.334;2022-10-17T12:20:40;11.88;;;7.15;;
39214;SDS011;24932;51.746;14.334;2022-10-17T12:24:41;11.02;;;7.57;;
39214;SDS011;24932;51.746;14.334;2022-10-17T12:28:41;15.35;;;7.75;;
39214;SDS011;24932;51.746;14.334;2022-10-17T12:33:10;11.32;;;7.5;;
39214;SDS011;24932;51.746;14.334;2022-10-17T12:36:40;12.52;;;6.8;;
39214;SDS011;24932;51.746;14.334;2022-10-17T12:40:49;13.75;;;7.47;;
39214;SDS011;24932;51.746;14.334;2022-10-17T12:44:41;11.77;;;7.5;;
39214;SDS011;24932;51.746;14.334;2022-10-17T12:48:59;10.98;;;7.55;;
39214;SDS011;24932;51.746;14.334;2022-10-17T12:52:59;10.6;;;8.05;;
39214;SDS011;24932;51.746;14.334;2022-10-17T12:56:41;9.45;;;7.12;;
39214;SDS011;24932;51.746;14.334;2022-10-17T13:00:45;9.48;;;6.65;;
39214;SDS011;24932;51.746;14.334;2022-10-17T13:04:41;13.98;;;6.87;;
39214;SDS011;24932;51.746;14.334;2022-10-17T13:08:42;8.73;;;7.05;;
39214;SDS011;24932;51.746;14.334;2022-10-17T13:12:41;11.15;;;7.35;;
39214;SDS011;24932;51.746;14.334;2022-10-17T13:16:57;10.6;;;7.05;;
39214;SDS011;24932;51.746;14.334;2022-10-17T13:20:40;9.2;;;7.05;;
39214;SDS011;24932;51.746;14.334;2022-10-17T13:24:40;10.05;;;7.45;;
39214;SDS011;24932;51.746;14.334;2022-10-17T13:28:40;13.4;;;7.93;;
39214;SDS011;24932;51.746;14.334;2022-10-17T13:32:40;8.25;;;7.35;;
39214;SDS011;24932;51.746;14.334;2022-10-17T13:36:41;11.82;;;7.78;;
39214;SDS011;24932;51.746;14.334;2022-10-17T13:40:50;14.77;;;8.13;;
39214;SDS011;24932;51.746;14.334;2022-10-17T13:44:43;12.07;;;7.62;;
39214;SDS011;24932;51.746;14.334;2022-10-17T13:48:40;12.65;;;8.15;;
39214;SDS011;24932;51.746;14.334;2022-10-17T13:52:40;11.12;;;8.1;;
39214;SDS011;24932;51.746;14.334;2022-10-17T13:56:40;12.05;;;8.8;;
39214;SDS011;24932;51.746;14.334;2022-10-17T14:00:40;11.35;;;8.68;;
39214;SDS011;24932;51.746;14.334;2022-10-17T14:05:16;12.98;;;8.25;;
39214;SDS011;24932;51.746;14.334;2022-10-17T14:08:49;10.07;;;8.5;;
39214;SDS011;24932;51.746;14.334;2022-10-17T14:12:41;9.57;;;8.2;;
39214;SDS011;24932;51.746;14.334;2022-10-17T14:16:41;12.25;;;8.48;;
39214;SDS011;24932;51.746;14.334;2022-10-17T14:21:32;14.98;;;8.6;;
39214;SDS011;24932;51.746;14.334;2022-10-17T14:24:40;12.8;;;8.52;;
39214;SDS011;24932;51.746;14.334;2022-10-17T14:28:42;14.07;;;9.1;;
39214;SDS011;24932;51.746;14.334;2022-10-17T14:32:41;10.13;;;7.8;;
39214;SDS011;24932;51.746;14.334;2022-10-17T14:36:40;12.65;;;8.27;;
39214;SDS011;24932;51.746;14.334;2022-10-17T14:40:46;13.1;;;8.32;;
39214;SDS011;24932;51.746;14.334;2022-10-17T14:44:41;12.73;;;8.38;;
39214;SDS011;24932;51.746;14.334;2022-10-17T14:48:40;13.68;;;8.9;;
39214;SDS011;24932;51.746;14.334;2022-10-17T14:52:40;9.43;;;8.43;;
39214;SDS011;24932;51.746;14.334;2022-10-17T14:56:41;12.6;;;9.7;;
39214;SDS011;24932;51.746;14.334;2022-10-17T15:00:40;12.9;;;8.55;;
39214;SDS011;24932;51.746;14.334;2022-10-17T15:04:40;10.73;;;9.48;;
39214;SDS011;24932;51.746;14.334;2022-10-17T15:08:40;10.45;;;8.82;;
39214;SDS011;24932;51.746;14.334;2022-10-17T15:12:59;12.0;;;9.82;;
39214;SDS011;24932;51.746;14.334;2022-10-17T15:16:40;13.1;;;9.63;;
39214;SDS011;24932;51.746;14.334;2022-10-17T15:20:41;12.7;;;9.93;;
39214;SDS011;24932;51.746;14.334;2022-10-17T15:24:40;14.43;;;10.43;;
39214;SDS011;24932;51.746;14.334;2022-10-17T15:28:41;17.45;;;10.25;;
39214;SDS011;24932;51.746;14.334;2022-10-17T15:32:40;12.6;;;10.1;;
39214;SDS011;24932;51.746;14.334;2022-10-17T15:36:41;13.98;;;10.68;;
39214;SDS011;24932;51.746;14.334;2022-10-17T15:40:41;14.27;;;11.32;;
39214;SDS011;24932;51.746;14.334;2022-10-17T15:44:40;16.77;;;10.73;;
39214;SDS011;24932;51.746;14.334;2022-10-17T15:48:40;17.85;;;11.27;;
39214;SDS011;24932;51.746;14.334;2022-10-17T15:52:40;16.27;;;11.77;;
39214;SDS011;24932;51.746;14.334;2022-10-17T15:56:41;16.6;;;11.68;;
39214;SDS011;24932;51.746;14.334;2022-10-17T16:00:41;17.27;;;11.4;;
39214;SDS011;24932;51.746;14.334;2022-10-17T16:04:40;20.7;;;12.13;;
39214;SDS011;24932;51.746;14.334;2022-10-17T16:08:40;21.25;;;11.77;;
39214;SDS011;24932;51.746;14.334;2022-10-17T16:12:41;18.12;;;12.27;;
39214;SDS011;24932;51.746;14.334;2022-10-17T16:16:40;18.42;;;13.55;;
39214;SDS011;24932;51.746;14.334;2022-10-17T16:20:40;21.42;;;14.3;;
39214;SDS011;24932;51.746;14.334;2022-10-17T16:24:41;18.58;;;13.5;;
39214;SDS011;24932;51.746;14.334;2022-10-17T16:28:46;16.0;;;13.18;;
39214;SDS011;24932;51.746;14.334;2022-10-17T16:32:41;17.67;;;13.45;;
39214;SDS011;24932;51.746;14.334;2022-10-17T16:36:40;19.33;;;12.5;;
39214;SDS011;24932;51.746;14.334;2022-10-17T16:40:41;20.77;;;13.25;;
39214;SDS011;24932;51.746;14.334;2022-10-17T16:44:40;22.02;;;15.4;;
39214;SDS011;24932;51.746;14.334;2022-10-17T16:48:40;22.62;;;13.0;;
39214;SDS011;24932;51.746;14.334;2022-10-17T16:52:40;20.67;;;14.27;;
39214;SDS011;24932;51.746;14.334;2022-10-17T16:56:39;21.48;;;14.52;;
39214;SDS011;24932;51.746;14.334;2022-10-17T17:00:41;19.17;;;14.82;;
39214;SDS011;24932;51.746;14.334;2022-10-17T17:04:40;22.45;;;14.9;;
39214;SDS011;24932;51.746;14.334;2022-10-17T17:08:40;26.4;;;14.25;;
39214;SDS011;24932;51.746;14.334;2022-10-17T17:12:40;17.85;;;14.13;;
39214;SDS011;24932;51.746;14.334;2022-10-17T17:16:41;27.35;;;15.98;;
39214;SDS011;24932;51.746;14.334;2022-10-17T17:20:41;21.25;;;14.82;;
39214;SDS011;24932;51.746;14.334;2022-10-17T17:24:40;23.87;;;16.52;;
39214;SDS011;24932;51.746;14.334;2022-10-17T17:28:40;25.33;;;17.2;;
39214;SDS011;24932;51.746;14.334;2022-10-17T17:32:40;27.62;;;17.45;;
39214;SDS011;24932;51.746;14.334;2022-10-17T17:36:40;25.37;;;18.33;;
39214;SDS011;24932;51.746;14.334;2022-10-17T17:40:44;27.35;;;17.4;;
39214;SDS011;24932;51.746;14.334;2022-10-17T17:44:40;34.9;;;19.15;;
39214;SDS011;24932;51.746;14.334;2022-10-17T17:48:41;25.45;;;18.08;;
39214;SDS011;24932;51.746;14.334;2022-10-17T17:52:40;29.85;;;18.9;;
39214;SDS011;24932;51.746;14.334;2022-10-17T17:56:41;26.92;;;18.3;;
39214;SDS011;24932;51.746;14.334;2022-10-17T18:00:41;27.65;;;19.92;;
39214;SDS011;24932;51.746;14.334;2022-10-17T18:04:40;28.67;;;19.08;;
39214;SDS011;24932;51.746;14.334;2022-10-17T18:08:42;29.37;;;19.15;;
39214;SDS011;24932;51.746;14.334;2022-10-17T18:12:40;25.23;;;18.58;;
39214;SDS011;24932;51.746;14.334;2022-10-17T18:16:40;28.87;;;20.23;;
39214;SDS011;24932;51.746;14.334;2022-10-17T18:20:41;31.17;;;19.95;;
39214;SDS011;24932;51.746;14.334;2022-10-17T18:24:40;34.15;;;21.4;;
39214;SDS011;24932;51.746;14.334;2022-10-17T18:28:42;33.3;;;21.87;;
39214;SDS011;24932;51.746;14.334;2022-10-17T18:32:40;30.3;;;20.75;;
39214;SDS011;24932;51.746;14.334;2022-10-17T18:36:40;29.52;;;21.83;;
39214;SDS011;24932;51.746;14.334;2022-10-17T18:40:40;31.75;;;19.8;;
39214;SDS011;24932;51.746;14.334;2022-10-17T18:44:40;27.05;;;20.0;;
39214;SDS011;24932;51.746;14.334;2022-10-17T18:48:41;33.88;;;20.9;;
39214;SDS011;24932;51.746;14.334;2022-10-17T18:52:40;30.5;;;21.42;;
39214;SDS011;24932;51.746;14.334;2022-10-17T18:56:40;32.1;;;21.35;;
39214;SDS011;24932;51.746;14.334;2022-10-17T19:00:41;29.65;;;21.85;;
39214;SDS011;24932;51.746;14.334;2022-10-17T19:04:40;32.97;;;20.4;;
39214;SDS011;24932;51.746;14.334;2022-10-17T19:08:41;30.08;;;20.23;;
39214;SDS011;24932;51.746;14.334;2022-10-17T19:12:41;29.4;;;20.12;;
39214;SDS011;24932;51.746;14.334;2022-10-17T19:16:41;27.3;;;20.42;;
39214;SDS011;24932;51.746;14.334;2022-10-17T19:20:40;32.38;;;21.42;;
39214;SDS011;24932;51.746;14.334;2022-10-17T19:24:40;28.4;;;20.45;;
39214;SDS011;24932;51.746;14.334;2022-10-17T19:28:40;36.4;;;21.83;;
39214;SDS011;24932;51.746;14.334;2022-10-17T19:32:40;30.25;;;20.95;;
39214;SDS011;24932;51.746;14.334;2022-10-17T19:36:41;27.15;;;19.62;;
39214;SDS011;24932;51.746;14.334;2022-10-17T19:40:40;26.85;;;21.27;;
39214;SDS011;24932;51.746;14.334;2022-10-17T19:44:41;28.85;;;21.3;;
39214;SDS011;24932;51.746;14.334;2022-10-17T19:48:40;27.1;;;20.3;;
39214;SDS011;24932;51.746;14.334;2022-10-17T19:52:40;31.2;;;20.95;;
39214;SDS011;24932;51.746;14.334;2022-10-17T19:56:40;28.35;;;20.88;;
39214;SDS011;24932;51.746;14.334;2022-10-17T20:00:44;30.33;;;21.1;;
39214;SDS011;24932;51.746;14.334;2022-10-17T20:05:07;32.03;;;21.42;;
39214;SDS011;24932;51.746;14.334;2022-10-17T20:08:40;36.22;;;21.87;;
39214;SDS011;24932;51.746;14.334;2022-10-17T20:12:40;36.78;;;22.37;;
39214;SDS011;24932;51.746;14.334;2022-10-17T20:16:40;30.4;;;22.13;;
39214;SDS011;24932;51.746;14.334;2022-10-17T20:20:40;34.4;;;21.55;;
39214;SDS011;24932;51.746;14.334;2022-10-17T20:24:40;37.35;;;22.95;;
39214;SDS011;24932;51.746;14.334;2022-10-17T20:28:41;28.3;;;21.87;;
39214;SDS011;24932;51.746;14.334;2022-10-17T20:32:41;29.5;;;21.95;;
39214;SDS011;24932;51.746;14.334;2022-10-17T20:36:40;34.22;;;22.48;;
39214;SDS011;24932;51.746;14.334;2022-10-17T20:40:40;36.13;;;22.87;;
39214;SDS011;24932;51.746;14.334;2022-10-17T20:44:40;40.5;;;22.58;;
39214;SDS011;24932;51.746;14.334;2022-10-17T20:48:40;33.1;;;23.33;;
39214;SDS011;24932;51.746;14.334;2022-10-17T20:52:40;28.92;;;22.1;;
39214;SDS011;24932;51.746;14.334;2022-10-17T20:56:40;33.13;;;22.25;;
39214;SDS011;24932;51.746;14.334;2022-10-17T21:00:40;30.88;;;23.25;;
39214;SDS011;24932;51.746;14.334;2022-10-17T21:04:47;33.03;;;23.08;;
39214;SDS011;24932;51.746;14.334;2022-10-17T21:08:41;34.13;;;22.92;;
39214;SDS011;24932;51.746;14.334;2022-10-17T21:12:53;37.03;;;23.83;;
39214;SDS011;24932;51.746;14.334;2022-10-17T21:16:40;33.95;;;22.4;;
39214;SDS011;24932;51.746;14.334;2022-10-17T21:20:40;44.92;;;23.62;;
39214;SDS011;24932;51.746;14.334;2022-10-17T21:24:40;39.45;;;24.67;;
39214;SDS011;24932;51.746;14.334;2022-10-17T21:28:41;37.0;;;21.58;;
39214;SDS011;24932;51.746;14.334;2022-10-17T21:32:52;32.5;;;22.6;;
39214;SDS011;24932;51.746;14.334;2022-10-17T21:36:40;38.22;;;23.62;;
39214;SDS011;24932;51.746;14.334;2022-10-17T21:40:44;38.33;;;25.05;;
39214;SDS011;24932;51.746;14.334;2022-10-17T21:44:39;38.35;;;26.52;;
39214;SDS011;24932;51.746;14.334;2022-10-17T21:48:41;42.1;;;26.05;;
39214;SDS011;24932;51.746;14.334;2022-10-17T21:52:40;37.25;;;24.98;;
39214;SDS011;24932;51.746;14.334;2022-10-17T21:56:41;33.4;;;23.87;;
39214;SDS011;24932;51.746;14.334;2022-10-17T22:00:40;42.9;;;25.85;;
39214;SDS011;24932;51.746;14.334;2022-10-17T22:04:40;39.78;;;26.25;;
39214;SDS011;24932;51.746;14.334;2022-10-17T22:08:40;44.38;;;26.75;;
39214;SDS011;24932;51.746;14.334;2022-10-17T22:12:40;41.47;;;27.17;;
39214;SDS011;24932;51.746;14.334;2022-10-17T22:16:40;49.58;;;27.92;;
39214;SDS011;24932;51.746;14.334;2022-10-17T22:20:40;51.63;;;28.3;;
39214;SDS011;24932;51.746;14.334;2022-10-17T22:24:40;47.1;;;29.75;;
39214;SDS011;24932;51.746;14.334;2022-10-17T22:28:40;45.12;;;27.92;;
39214;SDS011;24932;51.746;14.334;2022-10-17T22:32:40;43.95;;;28.38;;
39214;SDS011;24932;51.746;14.334;2022-10-17T22:36:40;42.72;;;28.73;;
39214;SDS011;24932;51.746;14.334;2022-10-17T22:40:42;46.85;;;29.05;;
39214;SDS011;24932;51.746;14.334;2022-10-17T22:44:40;49.5;;;30.15;;
39214;SDS011;24932;51.746;14.334;2022-10-17T22:48:40;50.72;;;29.5;;
39214;SDS011;24932;51.746;14.334;2022-10-17T22:52:41;46.6;;;29.92;;
39214;SDS011;24932;51.746;14.334;2022-10-17T22:56:40;43.35;;;28.62;;
39214;SDS011;24932;51.746;14.334;2022-10-17T23:00:40;51.33;;;31.27;;
39214;SDS011;24932;51.746;14.334;2022-10-17T23:04:40;48.4;;;30.23;;
39214;SDS011;24932;51.746;14.334;2022-10-17T23:08:40;49.47;;;28.4;;
39214;SDS011;24932;51.746;14.334;2022-10-17T23:12:40;45.53;;;28.73;;